ADDS METAR Data INFO
IDs: Format: Raw Decoded Include TAF

Data at: 1348 UTC 17 Dec 2017

KJAN 171342Z 03006KT 3SM RA BR SCT005 OVC035 09/07 A3012 RMK AO2 P0030 T00890072
KJAN 171333Z 36007KT 2 1/2SM +RA BR SCT005 BKN029 OVC039 08/07 A3014 RMK AO2 P0027 T00830072
KJAN 171324Z 36008KT 3SM RA BR BKN005 OVC027 09/07 A3013 RMK AO2 P0023 T00890072
KJAN 171319Z 01007KT 1 3/4SM +RA BR BKN005 BKN021 OVC028 09/07 A3013 RMK AO2 P0017 T00890072
KJAN 171254Z 35009KT 6SM -RA BR BKN005 OVC017 09/08 A3012 RMK AO2 SLP200 P0012 T00940078
KJAN 171154Z 36008KT 8SM -RA OVC006 12/10 A3009 RMK AO2 SLP190 P0008 60049 70049 T01170100 10133 20117 50025
KJAN 171146Z AUTO 33004KT 5SM -RA BR BKN004 BKN010 OVC014 12/10 A3010 RMK AO2 P0008 T01170100
KJAN 171132Z AUTO 36004KT 4SM RA BR SCT005 BKN008 OVC020 12/11 A3011 RMK AO2 P0005 T01170106
KJAN 171101Z AUTO 29006KT 9SM -RA FEW008 OVC015 12/10 A3011 RMK AO2 P0000 T01170100
KJAN 171054Z AUTO 29010G19KT 6SM -RA BR FEW008 BKN014 OVC075 12/10 A3011 RMK AO2 SLP194 P0037 T01170100
KJAN 171048Z AUTO 30011G19KT 3SM +RA BR FEW008 BKN014 OVC075 12/10 A3011 RMK AO2 P0034
KJAN 171040Z AUTO 28009G19KT 2 1/2SM +RA BR FEW006 BKN016 OVC075 12/11 A3010 RMK AO2 P0025 T01220106
KJAN 171033Z AUTO 24011G18KT 200V270 5SM -RA BR SCT017 BKN028 OVC075 13/11 A3011 RMK AO2 PRESRR P0024 T01280111
KJAN 171029Z AUTO 15009KT 2 1/2SM RA BR SCT020 BKN032 OVC075 12/11 A3005 RMK AO2 P0023 T01220106
KJAN 171020Z AUTO 15012KT 2 1/2SM +RA BR SCT018 BKN027 OVC049 12/11 A3004 RMK AO2 P0007 T01220106
KJAN 170954Z AUTO 17008KT 10SM -RA FEW025 BKN075 OVC120 13/09 A3003 RMK AO2 RAB24 SLP168 P0004 T01280089
KJAN 170854Z AUTO 14011KT 10SM OVC095 13/03 A3002 RMK AO2 SLP163 T01330033 56031
KJAN 170754Z AUTO 13011KT 10SM OVC100 13/00 A3003 RMK AO2 SLP167 T01280000
KJAN 170654Z AUTO 15011KT 10SM OVC100 12/00 A3008 RMK AO2 SLP183 T01220000
KJAN 170554Z AUTO 15008KT 10SM OVC095 12/01 A3011 RMK AO2 SLP194 T01170006 10117 20072 401441028 56027
KJAN 170454Z 13008KT 10SM OVC095 11/00 A3012 RMK AO2 SLP199 T01110000
KJAN 170413Z 12007KT 10SM SCT025 OVC095 11/00 A3015 RMK AO2 T01110000
KJAN 170354Z 13007KT 10SM OVC024 11/00 A3016 RMK AO2 SLP211 T01060000
KJAN 170318Z 13006KT 10SM BKN022 OVC095 10/M01 A3017 RMK AO2 T01001006
KJAN 170254Z 15005KT 10SM BKN100 09/00 A3019 RMK AO2 SLP223 T00890000 50004
KJAN 170154Z 00000KT 10SM BKN095 08/00 A3020 RMK AO2 SLP228 T00780000
KJAN 170054Z 00000KT 10SM CLR 09/M01 A3019 RMK AO2 SLP225 T00891011
KJAN 162354Z 13006KT 10SM SCT250 10/M01 A3018 RMK AO2 SLP220 T01001011 10144 20100 56001
KJAN 162254Z COR 13006KT 10SM SCT150 BKN250 11/M01 A3018 RMK AO2 SLP219 T01111006
KJAN 162154Z 11003KT 10SM BKN150 14/M02 A3017 RMK AO2 SLP217 T01391022
KJAN 162054Z 14005KT 10SM BKN150 14/M03 A3018 RMK AO2 SLP220 T01391033 56022
KJAN 161954Z COR VRB04KT 10SM BKN150 13/M03 A3019 RMK AO2 SLP225 T01331028
KJAN 161854Z 15008KT 10SM SCT250 13/M03 A3022 RMK AO2 SLP233 T01331033
KJAN 161754Z 18009KT 10SM SCT250 13/M02 A3024 RMK AO2 SLP242 T01281017 10128 21028 58016
KJAN 161654Z 15006KT 10SM SCT250 11/M01 A3028 RMK AO2 SLP253 T01111011
KJAN 161554Z 12004KT 10SM SCT150 09/M01 A3030 RMK AO2 SLP260 T00941006
KJAN 161454Z 00000KT 10SM FEW120 06/00 A3029 RMK AO2 SLP260 T00560000 51010
KJAN 161354Z 00000KT 10SM FEW010 FEW080 01/M02 A3029 RMK AO2 SLP257 T00061017
KJAN 161254Z 00000KT 10SM FEW010 M02/M04 A3029 RMK AO2 SLP259 T10171039
KJAN 161154Z 00000KT 10SM CLR M02/M04 A3026 RMK AO2 SLP250 T10221044 11011 21028 53004
KJAN 161054Z 00000KT 10SM CLR M02/M04 A3025 RMK AO2 SLP244 T10221044
KJAN 160954Z 00000KT 10SM CLR M02/M04 A3026 RMK AO2 SLP247 T10221044
KJAN 160854Z 00000KT 10SM CLR M02/M04 A3025 RMK AO2 SLP245 T10171039 58004
KJAN 160754Z 00000KT 10SM CLR M03/M05 A3026 RMK AO2 SLP247 T10281050
KJAN 160654Z 00000KT 10SM CLR M02/M04 A3026 RMK AO2 SLP248 T10171044
KJAN 160554Z 00000KT 10SM CLR M01/M04 A3026 RMK AO2 SLP249 T10111039 10056 21017 400891017 50004
KJAN 160454Z 00000KT 10SM CLR M01/M03 A3027 RMK AO2 SLP252 T10061033
KJAN 160354Z 00000KT 10SM CLR 00/M03 A3026 RMK AO2 SLP248 T00001033
KJAN 160254Z 00000KT 10SM CLR 01/M03 A3025 RMK AO2 SLP245 T00111028 51010
KJAN 160154Z 15003KT 10SM CLR 02/M02 A3025 RMK AO2 SLP244 T00221017